sensor_id;sensor_type;location;lat;lon;timestamp;pressure;altitude;pressure_sealevel;temperature;humidity
61014;BME280;46899;47.542;19.082;2023-05-21T00:00:24;100566.47;;;15.51;100.00
61014;BME280;46899;47.542;19.082;2023-05-21T00:03:26;100566.41;;;15.35;100.00
61014;BME280;46899;47.542;19.082;2023-05-21T00:06:31;100561.44;;;15.29;100.00
61014;BME280;46899;47.542;19.082;2023-05-21T00:09:34;100567.41;;;15.33;100.00
61014;BME280;46899;47.542;19.082;2023-05-21T00:12:39;100571.25;;;15.26;100.00
61014;BME280;46899;47.542;19.082;2023-05-21T00:15:43;100579.91;;;15.28;100.00
61014;BME280;46899;47.542;19.082;2023-05-21T00:18:45;100573.66;;;15.30;100.00
61014;BME280;46899;47.542;19.082;2023-05-21T00:21:48;100580.34;;;15.36;100.00
61014;BME280;46899;47.542;19.082;2023-05-21T00:24:51;100574.31;;;15.34;100.00
61014;BME280;46899;47.542;19.082;2023-05-21T00:27:54;100575.28;;;15.33;100.00
61014;BME280;46899;47.542;19.082;2023-05-21T00:30:56;100569.47;;;15.26;100.00
61014;BME280;46899;47.542;19.082;2023-05-21T00:33:59;100574.78;;;15.25;100.00
61014;BME280;46899;47.542;19.082;2023-05-21T00:37:02;100571.09;;;15.29;100.00
61014;BME280;46899;47.542;19.082;2023-05-21T00:40:05;100571.09;;;15.29;100.00
61014;BME280;46899;47.542;19.082;2023-05-21T00:43:09;100574.12;;;15.21;100.00
61014;BME280;46899;47.542;19.082;2023-05-21T00:46:13;100576.66;;;15.23;100.00
61014;BME280;46899;47.542;19.082;2023-05-21T00:49:18;100568.56;;;15.27;100.00
61014;BME280;46899;47.542;19.082;2023-05-21T00:52:21;100566.03;;;15.26;100.00
61014;BME280;46899;47.542;19.082;2023-05-21T00:55:24;100568.66;;;15.26;100.00
61014;BME280;46899;47.542;19.082;2023-05-21T00:58:27;100561.69;;;15.25;100.00
61014;BME280;46899;47.542;19.082;2023-05-21T01:01:30;100571.72;;;15.17;100.00
61014;BME280;46899;47.542;19.082;2023-05-21T01:04:35;100569.78;;;15.03;100.00
61014;BME280;46899;47.542;19.082;2023-05-21T01:07:38;100574.47;;;14.96;100.00
61014;BME280;46899;47.542;19.082;2023-05-21T01:10:42;100570.56;;;14.88;100.00
61014;BME280;46899;47.542;19.082;2023-05-21T01:13:48;100563.97;;;14.79;100.00
61014;BME280;46899;47.542;19.082;2023-05-21T01:16:51;100564.12;;;14.76;100.00
61014;BME280;46899;47.542;19.082;2023-05-21T01:19:55;100566.03;;;14.73;100.00
61014;BME280;46899;47.542;19.082;2023-05-21T01:22:58;100564.41;;;14.70;100.00
61014;BME280;46899;47.542;19.082;2023-05-21T01:26:01;100561.25;;;14.64;100.00
61014;BME280;46899;47.542;19.082;2023-05-21T01:29:04;100569.47;;;14.56;100.00
61014;BME280;46899;47.542;19.082;2023-05-21T01:35:34;100554.06;;;14.50;100.00
61014;BME280;46899;47.542;19.082;2023-05-21T01:38:41;100564.69;;;14.47;100.00
61014;BME280;46899;47.542;19.082;2023-05-21T01:41:44;100560.66;;;14.40;100.00
61014;BME280;46899;47.542;19.082;2023-05-21T01:44:47;100565.25;;;14.35;100.00
61014;BME280;46899;47.542;19.082;2023-05-21T01:47:52;100558.34;;;14.34;100.00
61014;BME280;46899;47.542;19.082;2023-05-21T01:50:56;100566.56;;;14.25;100.00
61014;BME280;46899;47.542;19.082;2023-05-21T01:54:00;100558.56;;;14.28;100.00
61014;BME280;46899;47.542;19.082;2023-05-21T01:57:02;100568.34;;;14.24;100.00
61014;BME280;46899;47.542;19.082;2023-05-21T02:00:05;100564.47;;;14.14;100.00
61014;BME280;46899;47.542;19.082;2023-05-21T02:03:16;100563.03;;;14.07;100.00
61014;BME280;46899;47.542;19.082;2023-05-21T02:06:19;100557.72;;;14.09;100.00
61014;BME280;46899;47.542;19.082;2023-05-21T02:09:22;100564.94;;;14.04;100.00
61014;BME280;46899;47.542;19.082;2023-05-21T02:12:25;100558.16;;;14.00;100.00
61014;BME280;46899;47.542;19.082;2023-05-21T02:15:29;100557.25;;;14.01;100.00
61014;BME280;46899;47.542;19.082;2023-05-21T02:18:32;100552.28;;;13.95;100.00
61014;BME280;46899;47.542;19.082;2023-05-21T02:21:35;100560.41;;;13.89;100.00
61014;BME280;46899;47.542;19.082;2023-05-21T02:24:38;100556.28;;;13.83;100.00
61014;BME280;46899;47.542;19.082;2023-05-21T02:27:41;100559.00;;;13.82;100.00
61014;BME280;46899;47.542;19.082;2023-05-21T02:30:44;100558.13;;;13.81;100.00
61014;BME280;46899;47.542;19.082;2023-05-21T02:33:47;100559.06;;;13.80;100.00
61014;BME280;46899;47.542;19.082;2023-05-21T02:36:49;100557.44;;;13.78;100.00
61014;BME280;46899;47.542;19.082;2023-05-21T02:39:55;100554.41;;;13.87;100.00
61014;BME280;46899;47.542;19.082;2023-05-21T02:42:58;100555.31;;;13.86;100.00
61014;BME280;46899;47.542;19.082;2023-05-21T02:46:00;100550.22;;;13.83;100.00
61014;BME280;46899;47.542;19.082;2023-05-21T02:49:03;100552.25;;;13.76;100.00
61014;BME280;46899;47.542;19.082;2023-05-21T02:52:06;100551.69;;;13.69;100.00
61014;BME280;46899;47.542;19.082;2023-05-21T02:55:08;100559.41;;;13.73;100.00
61014;BME280;46899;47.542;19.082;2023-05-21T02:58:11;100554.31;;;13.69;100.00
61014;BME280;46899;47.542;19.082;2023-05-21T03:01:14;100558.75;;;13.67;100.00
61014;BME280;46899;47.542;19.082;2023-05-21T03:04:18;100554.31;;;13.69;100.00
61014;BME280;46899;47.542;19.082;2023-05-21T03:07:22;100555.16;;;13.70;100.00
61014;BME280;46899;47.542;19.082;2023-05-21T03:10:25;100554.44;;;13.66;100.00
61014;BME280;46899;47.542;19.082;2023-05-21T03:13:28;100550.19;;;13.64;100.00
61014;BME280;46899;47.542;19.082;2023-05-21T03:16:31;100548.28;;;13.67;100.00
61014;BME280;46899;47.542;19.082;2023-05-21T03:19:35;100541.56;;;13.62;100.00
61014;BME280;46899;47.542;19.082;2023-05-21T03:22:38;100546.88;;;13.60;100.00
61014;BME280;46899;47.542;19.082;2023-05-21T03:25:41;100548.53;;;13.61;100.00
61014;BME280;46899;47.542;19.082;2023-05-21T03:28:46;100554.63;;;13.62;100.00
61014;BME280;46899;47.542;19.082;2023-05-21T03:31:48;100550.91;;;13.67;100.00
61014;BME280;46899;47.542;19.082;2023-05-21T03:34:52;100548.94;;;13.73;100.00
61014;BME280;46899;47.542;19.082;2023-05-21T03:37:55;100547.53;;;13.84;100.00
61014;BME280;46899;47.542;19.082;2023-05-21T03:40:57;100552.34;;;13.93;100.00
61014;BME280;46899;47.542;19.082;2023-05-21T03:44:00;100557.88;;;14.06;100.00
61014;BME280;46899;47.542;19.082;2023-05-21T03:47:04;100570.47;;;14.16;100.00
61014;BME280;46899;47.542;19.082;2023-05-21T03:50:07;100565.66;;;14.26;100.00
61014;BME280;46899;47.542;19.082;2023-05-21T03:53:11;100560.56;;;14.42;100.00
61014;BME280;46899;47.542;19.082;2023-05-21T03:56:14;100557.16;;;14.58;100.00
61014;BME280;46899;47.542;19.082;2023-05-21T03:59:16;100561.75;;;14.72;100.00
61014;BME280;46899;47.542;19.082;2023-05-21T04:02:20;100564.59;;;14.84;100.00
61014;BME280;46899;47.542;19.082;2023-05-21T04:05:23;100563.72;;;15.02;100.00
61014;BME280;46899;47.542;19.082;2023-05-21T04:08:25;100557.38;;;15.24;100.00
61014;BME280;46899;47.542;19.082;2023-05-21T04:11:28;100569.47;;;15.43;100.00
61014;BME280;46899;47.542;19.082;2023-05-21T04:14:31;100572.47;;;15.70;100.00
61014;BME280;46899;47.542;19.082;2023-05-21T04:17:33;100573.44;;;15.85;100.00
61014;BME280;46899;47.542;19.082;2023-05-21T04:20:36;100572.31;;;16.06;100.00
61014;BME280;46899;47.542;19.082;2023-05-21T04:23:39;100565.38;;;16.36;100.00
61014;BME280;46899;47.542;19.082;2023-05-21T04:26:42;100566.59;;;16.62;100.00
61014;BME280;46899;47.542;19.082;2023-05-21T04:29:46;100571.91;;;16.76;98.38
61014;BME280;46899;47.542;19.082;2023-05-21T04:32:51;100571.63;;;16.80;97.09
61014;BME280;46899;47.542;19.082;2023-05-21T04:35:56;100574.00;;;16.85;97.14
61014;BME280;46899;47.542;19.082;2023-05-21T04:38:59;100575.94;;;16.97;97.10
61014;BME280;46899;47.542;19.082;2023-05-21T04:42:02;100576.94;;;16.94;96.65
61014;BME280;46899;47.542;19.082;2023-05-21T04:45:05;100577.81;;;16.95;96.96
61014;BME280;46899;47.542;19.082;2023-05-21T04:48:08;100574.81;;;17.01;95.48
61014;BME280;46899;47.542;19.082;2023-05-21T04:51:11;100576.91;;;17.10;98.21
61014;BME280;46899;47.542;19.082;2023-05-21T04:54:14;100572.50;;;17.10;94.05
61014;BME280;46899;47.542;19.082;2023-05-21T04:57:16;100571.12;;;17.19;94.29
61014;BME280;46899;47.542;19.082;2023-05-21T05:00:20;100566.53;;;17.23;92.86
61014;BME280;46899;47.542;19.082;2023-05-21T05:03:23;100560.28;;;17.39;95.84
61014;BME280;46899;47.542;19.082;2023-05-21T05:06:26;100568.56;;;17.47;97.43
61014;BME280;46899;47.542;19.082;2023-05-21T05:09:29;100559.94;;;17.59;95.60
61014;BME280;46899;47.542;19.082;2023-05-21T05:12:33;100560.81;;;17.74;94.25
61014;BME280;46899;47.542;19.082;2023-05-21T05:15:35;100562.03;;;17.83;92.32
61014;BME280;46899;47.542;19.082;2023-05-21T05:18:38;100571.63;;;17.98;88.80
61014;BME280;46899;47.542;19.082;2023-05-21T05:21:41;100570.72;;;18.25;88.99
61014;BME280;46899;47.542;19.082;2023-05-21T05:24:43;100568.53;;;18.60;79.34
61014;BME280;46899;47.542;19.082;2023-05-21T05:27:46;100567.69;;;18.86;77.47
61014;BME280;46899;47.542;19.082;2023-05-21T05:30:49;100560.69;;;19.12;77.31
61014;BME280;46899;47.542;19.082;2023-05-21T05:33:52;100563.50;;;19.36;72.46
61014;BME280;46899;47.542;19.082;2023-05-21T05:36:56;100559.81;;;19.51;71.74
61014;BME280;46899;47.542;19.082;2023-05-21T05:39:59;100563.41;;;19.75;70.78
61014;BME280;46899;47.542;19.082;2023-05-21T05:43:01;100564.09;;;20.15;67.66
61014;BME280;46899;47.542;19.082;2023-05-21T05:46:04;100562.81;;;20.33;65.09
61014;BME280;46899;47.542;19.082;2023-05-21T05:49:07;100559.03;;;20.61;66.36
61014;BME280;46899;47.542;19.082;2023-05-21T05:52:09;100558.53;;;20.79;64.11
61014;BME280;46899;47.542;19.082;2023-05-21T05:55:12;100565.87;;;20.87;63.90
61014;BME280;46899;47.542;19.082;2023-05-21T05:58:15;100554.38;;;20.99;62.30
61014;BME280;46899;47.542;19.082;2023-05-21T06:01:19;100551.22;;;20.94;63.97
61014;BME280;46899;47.542;19.082;2023-05-21T06:04:24;100551.19;;;21.06;62.18
61014;BME280;46899;47.542;19.082;2023-05-21T06:07:27;100545.78;;;21.08;63.39
61014;BME280;46899;47.542;19.082;2023-05-21T06:10:31;100546.34;;;21.00;61.59
61014;BME280;46899;47.542;19.082;2023-05-21T06:13:33;100543.06;;;20.97;60.86
61014;BME280;46899;47.542;19.082;2023-05-21T06:16:36;100545.63;;;20.98;61.25
61014;BME280;46899;47.542;19.082;2023-05-21T06:19:39;100540.53;;;21.19;61.37
61014;BME280;46899;47.542;19.082;2023-05-21T06:22:42;100545.87;;;21.41;61.57
61014;BME280;46899;47.542;19.082;2023-05-21T06:25:44;100546.63;;;21.54;60.94
61014;BME280;46899;47.542;19.082;2023-05-21T06:28:47;100535.66;;;21.48;59.03
61014;BME280;46899;47.542;19.082;2023-05-21T06:31:50;100530.72;;;21.76;57.70
61014;BME280;46899;47.542;19.082;2023-05-21T06:34:53;100523.66;;;21.88;58.52
61014;BME280;46899;47.542;19.082;2023-05-21T06:37:55;100530.16;;;21.95;57.16
61014;BME280;46899;47.542;19.082;2023-05-21T06:40:58;100526.19;;;21.78;57.53
61014;BME280;46899;47.542;19.082;2023-05-21T06:44:03;100523.53;;;22.12;57.56
61014;BME280;46899;47.542;19.082;2023-05-21T06:47:10;100513.69;;;22.45;57.14
61014;BME280;46899;47.542;19.082;2023-05-21T06:50:13;100515.41;;;23.10;52.60
61014;BME280;46899;47.542;19.082;2023-05-21T06:53:16;100524.94;;;26.31;44.30
61014;BME280;46899;47.542;19.082;2023-05-21T06:56:18;100534.03;;;30.29;35.07
61014;BME280;46899;47.542;19.082;2023-05-21T06:59:21;100517.22;;;33.00;29.85
61014;BME280;46899;47.542;19.082;2023-05-21T07:02:24;100528.03;;;34.84;27.36
61014;BME280;46899;47.542;19.082;2023-05-21T07:05:27;100527.00;;;34.85;26.22
61014;BME280;46899;47.542;19.082;2023-05-21T07:08:30;100523.38;;;36.54;24.38
61014;BME280;46899;47.542;19.082;2023-05-21T07:11:32;100523.19;;;37.60;23.12
61014;BME280;46899;47.542;19.082;2023-05-21T07:14:36;100526.72;;;37.36;23.38
61014;BME280;46899;47.542;19.082;2023-05-21T07:17:38;100521.00;;;37.26;23.74
61014;BME280;46899;47.542;19.082;2023-05-21T07:20:42;100528.97;;;38.55;22.17
61014;BME280;46899;47.542;19.082;2023-05-21T07:23:45;100523.66;;;38.12;22.59
61014;BME280;46899;47.542;19.082;2023-05-21T07:26:47;100511.41;;;37.48;23.15
61014;BME280;46899;47.542;19.082;2023-05-21T07:29:51;100508.25;;;38.54;21.68
61014;BME280;46899;47.542;19.082;2023-05-21T07:32:55;100509.03;;;39.37;21.26
61014;BME280;46899;47.542;19.082;2023-05-21T07:35:58;100508.78;;;39.50;21.34
61014;BME280;46899;47.542;19.082;2023-05-21T07:39:01;100513.34;;;38.50;21.56
61014;BME280;46899;47.542;19.082;2023-05-21T07:42:04;100507.94;;;37.78;22.74
61014;BME280;46899;47.542;19.082;2023-05-21T07:45:09;100513.28;;;39.68;21.21
61014;BME280;46899;47.542;19.082;2023-05-21T07:48:12;100516.91;;;38.92;21.36
61014;BME280;46899;47.542;19.082;2023-05-21T07:51:16;100522.50;;;39.90;20.44
61014;BME280;46899;47.542;19.082;2023-05-21T07:54:20;100508.31;;;39.30;20.83
61014;BME280;46899;47.542;19.082;2023-05-21T07:57:22;100513.00;;;37.56;22.57
61014;BME280;46899;47.542;19.082;2023-05-21T08:00:25;100501.63;;;38.50;21.82
61014;BME280;46899;47.542;19.082;2023-05-21T08:03:28;100510.94;;;38.72;21.33
61014;BME280;46899;47.542;19.082;2023-05-21T08:06:34;100504.00;;;36.81;22.31
61014;BME280;46899;47.542;19.082;2023-05-21T08:09:39;100511.63;;;39.78;19.85
61014;BME280;46899;47.542;19.082;2023-05-21T08:12:42;100503.69;;;39.30;20.20
61014;BME280;46899;47.542;19.082;2023-05-21T08:15:46;100498.59;;;38.10;21.46
61014;BME280;46899;47.542;19.082;2023-05-21T08:18:52;100501.87;;;38.30;21.46
61014;BME280;46899;47.542;19.082;2023-05-21T08:21:57;100493.47;;;39.84;20.13
61014;BME280;46899;47.542;19.082;2023-05-21T08:25:00;100496.38;;;38.18;21.28
61014;BME280;46899;47.542;19.082;2023-05-21T08:28:03;100500.50;;;39.22;20.46
61014;BME280;46899;47.542;19.082;2023-05-21T08:31:05;100494.41;;;39.08;21.32
61014;BME280;46899;47.542;19.082;2023-05-21T08:34:09;100500.22;;;38.88;20.97
61014;BME280;46899;47.542;19.082;2023-05-21T08:37:12;100490.16;;;36.58;23.44
61014;BME280;46899;47.542;19.082;2023-05-21T08:40:18;100491.41;;;40.02;20.58
61014;BME280;46899;47.542;19.082;2023-05-21T08:43:20;100494.66;;;37.69;22.33
61014;BME280;46899;47.542;19.082;2023-05-21T08:46:23;100504.34;;;38.79;21.12
61014;BME280;46899;47.542;19.082;2023-05-21T08:49:27;100502.88;;;39.30;20.74
61014;BME280;46899;47.542;19.082;2023-05-21T08:52:32;100497.81;;;37.66;22.10
61014;BME280;46899;47.542;19.082;2023-05-21T08:55:35;100503.34;;;39.27;20.79
61014;BME280;46899;47.542;19.082;2023-05-21T08:58:38;100502.06;;;39.64;20.71
61014;BME280;46899;47.542;19.082;2023-05-21T09:01:44;100495.88;;;38.10;21.63
61014;BME280;46899;47.542;19.082;2023-05-21T09:04:49;100492.44;;;37.17;22.98
61014;BME280;46899;47.542;19.082;2023-05-21T09:08:00;100494.81;;;36.45;23.73
61014;BME280;46899;47.542;19.082;2023-05-21T09:11:04;100498.63;;;37.92;22.39
61014;BME280;46899;47.542;19.082;2023-05-21T09:14:07;100491.84;;;35.38;24.38
61014;BME280;46899;47.542;19.082;2023-05-21T09:17:13;100487.09;;;35.97;24.54
61014;BME280;46899;47.542;19.082;2023-05-21T09:20:16;100490.38;;;34.83;25.60
61014;BME280;46899;47.542;19.082;2023-05-21T09:23:20;100484.16;;;33.40;27.25
61014;BME280;46899;47.542;19.082;2023-05-21T09:26:22;100479.75;;;31.62;29.70
61014;BME280;46899;47.542;19.082;2023-05-21T09:29:27;100483.75;;;30.99;30.33
61014;BME280;46899;47.542;19.082;2023-05-21T09:32:30;100466.88;;;30.60;31.56
61014;BME280;46899;47.542;19.082;2023-05-21T09:35:33;100470.44;;;30.53;32.09
61014;BME280;46899;47.542;19.082;2023-05-21T09:38:39;100470.44;;;30.53;32.99
61014;BME280;46899;47.542;19.082;2023-05-21T09:41:42;100471.00;;;29.70;35.18
61014;BME280;46899;47.542;19.082;2023-05-21T09:44:45;100465.03;;;29.60;33.73
61014;BME280;46899;47.542;19.082;2023-05-21T09:47:49;100469.69;;;29.74;32.26
61014;BME280;46899;47.542;19.082;2023-05-21T09:50:52;100472.16;;;29.05;34.43
61014;BME280;46899;47.542;19.082;2023-05-21T09:53:55;100462.97;;;29.70;33.46
61014;BME280;46899;47.542;19.082;2023-05-21T09:57:00;100464.66;;;29.63;34.17
61014;BME280;46899;47.542;19.082;2023-05-21T10:00:06;100466.47;;;29.32;34.87
61014;BME280;46899;47.542;19.082;2023-05-21T10:03:14;100463.00;;;30.09;34.82
61014;BME280;46899;47.542;19.082;2023-05-21T10:06:18;100463.34;;;29.59;32.89
61014;BME280;46899;47.542;19.082;2023-05-21T10:09:21;100465.75;;;29.38;32.69
61014;BME280;46899;47.542;19.082;2023-05-21T10:12:24;100455.19;;;29.92;32.30
61014;BME280;46899;47.542;19.082;2023-05-21T10:15:30;100448.41;;;30.04;33.03
61014;BME280;46899;47.542;19.082;2023-05-21T10:18:34;100442.69;;;29.68;33.68
61014;BME280;46899;47.542;19.082;2023-05-21T10:21:38;100445.16;;;29.86;33.05
61014;BME280;46899;47.542;19.082;2023-05-21T10:24:42;100438.94;;;29.46;32.89
61014;BME280;46899;47.542;19.082;2023-05-21T10:27:45;100436.03;;;29.56;33.06
61014;BME280;46899;47.542;19.082;2023-05-21T10:30:48;100429.38;;;29.36;33.21
61014;BME280;46899;47.542;19.082;2023-05-21T10:33:55;100435.56;;;29.44;33.87
61014;BME280;46899;47.542;19.082;2023-05-21T10:36:59;100432.94;;;29.28;34.10
61014;BME280;46899;47.542;19.082;2023-05-21T10:40:02;100431.94;;;29.84;33.10
61014;BME280;46899;47.542;19.082;2023-05-21T10:43:28;100427.78;;;30.27;32.22
61014;BME280;46899;47.542;19.082;2023-05-21T10:46:45;100427.91;;;30.11;32.33
61014;BME280;46899;47.542;19.082;2023-05-21T10:53:45;100429.59;;;30.12;33.53
61014;BME280;46899;47.542;19.082;2023-05-21T11:02:33;100417.22;;;29.64;33.43
61014;BME280;46899;47.542;19.082;2023-05-21T11:05:39;100421.38;;;29.74;32.65
61014;BME280;46899;47.542;19.082;2023-05-21T11:08:46;100412.84;;;29.08;34.76
61014;BME280;46899;47.542;19.082;2023-05-21T11:11:50;100415.53;;;29.08;34.29
61014;BME280;46899;47.542;19.082;2023-05-21T11:14:55;100412.16;;;28.17;35.70
61014;BME280;46899;47.542;19.082;2023-05-21T11:17:57;100401.28;;;28.11;36.28
61014;BME280;46899;47.542;19.082;2023-05-21T11:24:09;100409.41;;;27.26;37.48
61014;BME280;46899;47.542;19.082;2023-05-21T11:40:48;100406.34;;;29.57;34.67
61014;BME280;46899;47.542;19.082;2023-05-21T11:43:59;100400.25;;;29.71;34.84
61014;BME280;46899;47.542;19.082;2023-05-21T11:47:02;100395.63;;;29.57;31.78
61014;BME280;46899;47.542;19.082;2023-05-21T11:50:05;100413.09;;;29.53;31.65
61014;BME280;46899;47.542;19.082;2023-05-21T11:53:13;100399.72;;;29.37;33.14
61014;BME280;46899;47.542;19.082;2023-05-21T11:56:16;100399.03;;;29.43;33.55
61014;BME280;46899;47.542;19.082;2023-05-21T11:59:19;100404.06;;;29.46;34.36
61014;BME280;46899;47.542;19.082;2023-05-21T12:02:22;100402.25;;;29.31;34.52
61014;BME280;46899;47.542;19.082;2023-05-21T12:05:24;100385.19;;;29.16;32.74
61014;BME280;46899;47.542;19.082;2023-05-21T12:08:28;100379.87;;;28.83;34.18
61014;BME280;46899;47.542;19.082;2023-05-21T12:11:31;100376.34;;;28.99;34.11
61014;BME280;46899;47.542;19.082;2023-05-21T12:14:34;100371.84;;;28.83;34.76
61014;BME280;46899;47.542;19.082;2023-05-21T12:17:37;100379.94;;;29.46;34.60
61014;BME280;46899;47.542;19.082;2023-05-21T12:20:40;100370.84;;;28.44;32.42
61014;BME280;46899;47.542;19.082;2023-05-21T12:23:42;100366.81;;;28.48;32.42
61014;BME280;46899;47.542;19.082;2023-05-21T12:26:45;100369.50;;;28.00;33.75
61014;BME280;46899;47.542;19.082;2023-05-21T12:29:48;100375.59;;;27.84;34.26
61014;BME280;46899;47.542;19.082;2023-05-21T12:32:52;100367.31;;;28.03;33.94
61014;BME280;46899;47.542;19.082;2023-05-21T12:35:55;100370.34;;;28.16;34.10
61014;BME280;46899;47.542;19.082;2023-05-21T12:38:58;100351.59;;;28.00;34.41
61014;BME280;46899;47.542;19.082;2023-05-21T12:42:01;100355.94;;;28.58;34.89
61014;BME280;46899;47.542;19.082;2023-05-21T12:45:07;100357.84;;;29.28;32.70
61014;BME280;46899;47.542;19.082;2023-05-21T12:48:10;100356.34;;;29.26;32.46
61014;BME280;46899;47.542;19.082;2023-05-21T12:51:13;100352.41;;;29.44;32.40
61014;BME280;46899;47.542;19.082;2023-05-21T12:54:16;100352.66;;;29.65;32.11
61014;BME280;46899;47.542;19.082;2023-05-21T12:57:19;100343.38;;;29.45;31.41
61014;BME280;46899;47.542;19.082;2023-05-21T13:00:22;100340.78;;;29.29;32.15
61014;BME280;46899;47.542;19.082;2023-05-21T13:03:25;100337.06;;;28.75;33.04
61014;BME280;46899;47.542;19.082;2023-05-21T13:06:27;100342.88;;;28.79;33.76
61014;BME280;46899;47.542;19.082;2023-05-21T13:09:30;100337.84;;;28.92;33.22
61014;BME280;46899;47.542;19.082;2023-05-21T13:12:33;100339.47;;;29.09;33.76
61014;BME280;46899;47.542;19.082;2023-05-21T13:15:35;100327.16;;;28.84;33.85
61014;BME280;46899;47.542;19.082;2023-05-21T13:18:38;100328.16;;;28.83;32.54
61014;BME280;46899;47.542;19.082;2023-05-21T13:21:40;100326.44;;;28.98;32.07
61014;BME280;46899;47.542;19.082;2023-05-21T13:24:43;100316.97;;;28.63;32.26
61014;BME280;46899;47.542;19.082;2023-05-21T13:27:46;100317.59;;;28.57;30.66
61014;BME280;46899;47.542;19.082;2023-05-21T13:30:50;100313.06;;;28.90;31.94
61014;BME280;46899;47.542;19.082;2023-05-21T13:33:53;100310.12;;;28.61;32.47
61014;BME280;46899;47.542;19.082;2023-05-21T13:36:56;100303.16;;;28.90;31.57
61014;BME280;46899;47.542;19.082;2023-05-21T13:39:59;100297.63;;;29.00;31.38
61014;BME280;46899;47.542;19.082;2023-05-21T13:43:02;100305.25;;;28.72;31.96
61014;BME280;46899;47.542;19.082;2023-05-21T13:46:04;100309.25;;;28.76;32.89
61014;BME280;46899;47.542;19.082;2023-05-21T13:49:07;100299.06;;;28.39;33.93
61014;BME280;46899;47.542;19.082;2023-05-21T13:52:10;100290.03;;;28.32;33.98
61014;BME280;46899;47.542;19.082;2023-05-21T13:55:13;100291.41;;;28.28;34.67
61014;BME280;46899;47.542;19.082;2023-05-21T13:58:17;100292.72;;;28.16;34.11
61014;BME280;46899;47.542;19.082;2023-05-21T14:01:19;100285.19;;;28.20;33.40
61014;BME280;46899;47.542;19.082;2023-05-21T14:04:22;100290.38;;;28.37;34.05
61014;BME280;46899;47.542;19.082;2023-05-21T14:07:25;100294.16;;;27.87;35.03
61014;BME280;46899;47.542;19.082;2023-05-21T14:10:28;100287.66;;;27.81;34.57
61014;BME280;46899;47.542;19.082;2023-05-21T14:13:30;100290.72;;;28.18;34.80
61014;BME280;46899;47.542;19.082;2023-05-21T14:16:33;100295.75;;;28.21;34.61
61014;BME280;46899;47.542;19.082;2023-05-21T14:19:36;100290.03;;;28.08;33.50
61014;BME280;46899;47.542;19.082;2023-05-21T14:22:39;100288.37;;;28.23;33.03
61014;BME280;46899;47.542;19.082;2023-05-21T14:25:41;100284.03;;;28.06;33.64
61014;BME280;46899;47.542;19.082;2023-05-21T14:28:44;100282.81;;;27.93;34.59
61014;BME280;46899;47.542;19.082;2023-05-21T14:31:46;100280.19;;;28.09;35.04
61014;BME280;46899;47.542;19.082;2023-05-21T14:34:49;100273.66;;;28.03;35.07
61014;BME280;46899;47.542;19.082;2023-05-21T14:37:52;100277.28;;;27.78;35.00
61014;BME280;46899;47.542;19.082;2023-05-21T14:40:55;100265.59;;;27.87;34.79
61014;BME280;46899;47.542;19.082;2023-05-21T14:43:57;100265.44;;;27.89;35.23
61014;BME280;46899;47.542;19.082;2023-05-21T14:47:00;100270.75;;;27.72;35.02
61014;BME280;46899;47.542;19.082;2023-05-21T14:50:02;100270.59;;;27.74;34.30
61014;BME280;46899;47.542;19.082;2023-05-21T14:53:09;100259.56;;;27.69;35.10
61014;BME280;46899;47.542;19.082;2023-05-21T14:56:12;100255.53;;;27.57;35.51
61014;BME280;46899;47.542;19.082;2023-05-21T14:59:14;100265.25;;;27.74;36.19
61014;BME280;46899;47.542;19.082;2023-05-21T15:02:17;100258.88;;;27.59;35.89
61014;BME280;46899;47.542;19.082;2023-05-21T15:05:20;100268.09;;;27.14;37.26
61014;BME280;46899;47.542;19.082;2023-05-21T15:08:22;100259.12;;;27.32;36.66
61014;BME280;46899;47.542;19.082;2023-05-21T15:11:25;100256.06;;;27.10;36.48
61014;BME280;46899;47.542;19.082;2023-05-21T15:14:27;100255.53;;;27.07;36.45
61014;BME280;46899;47.542;19.082;2023-05-21T15:17:30;100257.56;;;26.79;36.50
61014;BME280;46899;47.542;19.082;2023-05-21T15:20:34;100250.87;;;26.75;37.31
61014;BME280;46899;47.542;19.082;2023-05-21T15:23:36;100250.28;;;26.89;37.02
61014;BME280;46899;47.542;19.082;2023-05-21T15:26:39;100243.94;;;26.90;37.33
61014;BME280;46899;47.542;19.082;2023-05-21T15:29:42;100254.25;;;26.85;37.29
61014;BME280;46899;47.542;19.082;2023-05-21T15:32:46;100246.66;;;26.73;37.36
61014;BME280;46899;47.542;19.082;2023-05-21T15:35:49;100252.00;;;26.73;37.41
61014;BME280;46899;47.542;19.082;2023-05-21T15:38:51;100253.47;;;26.93;37.42
61014;BME280;46899;47.542;19.082;2023-05-21T15:41:54;100241.38;;;26.81;36.81
61014;BME280;46899;47.542;19.082;2023-05-21T15:44:57;100242.03;;;26.75;36.81
61014;BME280;46899;47.542;19.082;2023-05-21T15:47:59;100241.28;;;26.65;37.67
61014;BME280;46899;47.542;19.082;2023-05-21T15:51:02;100251.81;;;26.66;37.11
61014;BME280;46899;47.542;19.082;2023-05-21T15:54:05;100249.50;;;26.45;38.01
61014;BME280;46899;47.542;19.082;2023-05-21T15:57:07;100253.47;;;26.16;38.08
61014;BME280;46899;47.542;19.082;2023-05-21T16:00:10;100254.25;;;25.91;37.90
61014;BME280;46899;47.542;19.082;2023-05-21T16:03:13;100259.50;;;25.83;37.52
61014;BME280;46899;47.542;19.082;2023-05-21T16:06:16;100261.78;;;25.95;37.52
61014;BME280;46899;47.542;19.082;2023-05-21T16:09:18;100258.78;;;25.98;37.51
61014;BME280;46899;47.542;19.082;2023-05-21T16:12:20;100259.97;;;25.78;37.42